sensor_id;sensor_type;location;lat;lon;timestamp;P1;durP1;ratioP1;P2;durP2;ratioP2
45760;SDS011;31471;51.040;14.414;2022-12-07T00:01:30;7.28;;;3.78;;
45760;SDS011;31471;51.040;14.414;2022-12-07T00:04:00;8.50;;;3.58;;
45760;SDS011;31471;51.040;14.414;2022-12-07T00:06:34;6.85;;;3.42;;
45760;SDS011;31471;51.040;14.414;2022-12-07T00:09:02;8.20;;;3.63;;
45760;SDS011;31471;51.040;14.414;2022-12-07T00:11:30;10.32;;;4.53;;
45760;SDS011;31471;51.040;14.414;2022-12-07T00:13:57;10.32;;;4.45;;
45760;SDS011;31471;51.040;14.414;2022-12-07T00:16:25;11.02;;;4.07;;
45760;SDS011;31471;51.040;14.414;2022-12-07T00:18:53;10.00;;;5.88;;
45760;SDS011;31471;51.040;14.414;2022-12-07T00:23:47;11.63;;;4.78;;
45760;SDS011;31471;51.040;14.414;2022-12-07T00:26:16;9.45;;;3.67;;
45760;SDS011;31471;51.040;14.414;2022-12-07T00:28:53;8.32;;;3.72;;
45760;SDS011;31471;51.040;14.414;2022-12-07T00:31:25;7.18;;;3.88;;
45760;SDS011;31471;51.040;14.414;2022-12-07T00:33:51;7.22;;;3.97;;
45760;SDS011;31471;51.040;14.414;2022-12-07T00:36:18;7.65;;;3.72;;
45760;SDS011;31471;51.040;14.414;2022-12-07T00:38:45;6.50;;;3.25;;
45760;SDS011;31471;51.040;14.414;2022-12-07T00:41:12;5.97;;;2.95;;
45760;SDS011;31471;51.040;14.414;2022-12-07T00:43:43;5.72;;;3.03;;
45760;SDS011;31471;51.040;14.414;2022-12-07T00:46:10;5.90;;;3.13;;
45760;SDS011;31471;51.040;14.414;2022-12-07T00:48:36;7.43;;;3.60;;
45760;SDS011;31471;51.040;14.414;2022-12-07T00:51:02;8.60;;;4.25;;
45760;SDS011;31471;51.040;14.414;2022-12-07T00:53:28;12.40;;;5.85;;
45760;SDS011;31471;51.040;14.414;2022-12-07T00:55:54;10.88;;;4.80;;
45760;SDS011;31471;51.040;14.414;2022-12-07T00:58:21;11.40;;;5.47;;
45760;SDS011;31471;51.040;14.414;2022-12-07T01:00:47;15.13;;;6.32;;
45760;SDS011;31471;51.040;14.414;2022-12-07T01:03:13;15.77;;;6.10;;
45760;SDS011;31471;51.040;14.414;2022-12-07T01:05:40;16.60;;;7.57;;
45760;SDS011;31471;51.040;14.414;2022-12-07T01:08:14;13.75;;;7.18;;
45760;SDS011;31471;51.040;14.414;2022-12-07T01:10:40;15.27;;;6.63;;
45760;SDS011;31471;51.040;14.414;2022-12-07T01:13:05;15.20;;;7.18;;
45760;SDS011;31471;51.040;14.414;2022-12-07T01:15:31;15.15;;;7.22;;
45760;SDS011;31471;51.040;14.414;2022-12-07T01:17:56;16.08;;;7.80;;
45760;SDS011;31471;51.040;14.414;2022-12-07T01:20:22;15.60;;;7.30;;
45760;SDS011;31471;51.040;14.414;2022-12-07T01:22:48;16.02;;;6.80;;
45760;SDS011;31471;51.040;14.414;2022-12-07T01:25:13;14.73;;;8.27;;
45760;SDS011;31471;51.040;14.414;2022-12-07T01:27:39;15.48;;;6.78;;
45760;SDS011;31471;51.040;14.414;2022-12-07T01:30:05;15.57;;;7.57;;
45760;SDS011;31471;51.040;14.414;2022-12-07T01:32:32;14.68;;;6.88;;
45760;SDS011;31471;51.040;14.414;2022-12-07T01:34:58;16.05;;;7.90;;
45760;SDS011;31471;51.040;14.414;2022-12-07T01:37:23;13.73;;;7.20;;
45760;SDS011;31471;51.040;14.414;2022-12-07T01:39:50;14.45;;;6.72;;
45760;SDS011;31471;51.040;14.414;2022-12-07T01:42:16;13.45;;;6.65;;
45760;SDS011;31471;51.040;14.414;2022-12-07T01:47:53;14.45;;;6.88;;
45760;SDS011;31471;51.040;14.414;2022-12-07T01:50:21;15.43;;;7.55;;
45760;SDS011;31471;51.040;14.414;2022-12-07T01:52:53;14.77;;;7.05;;
45760;SDS011;31471;51.040;14.414;2022-12-07T01:55:21;12.40;;;6.90;;
45760;SDS011;31471;51.040;14.414;2022-12-07T01:57:49;15.15;;;6.97;;
45760;SDS011;31471;51.040;14.414;2022-12-07T02:00:18;10.93;;;6.05;;
45760;SDS011;31471;51.040;14.414;2022-12-07T02:05:20;15.13;;;6.80;;
45760;SDS011;31471;51.040;14.414;2022-12-07T02:07:47;15.60;;;7.10;;
45760;SDS011;31471;51.040;14.414;2022-12-07T02:10:17;13.25;;;7.45;;
45760;SDS011;31471;51.040;14.414;2022-12-07T02:12:49;12.23;;;6.43;;
45760;SDS011;31471;51.040;14.414;2022-12-07T02:15:25;14.47;;;6.57;;
45760;SDS011;31471;51.040;14.414;2022-12-07T02:18:07;14.30;;;6.50;;
45760;SDS011;31471;51.040;14.414;2022-12-07T02:29:08;12.60;;;6.13;;
45760;SDS011;31471;51.040;14.414;2022-12-07T02:34:44;14.85;;;6.95;;
45760;SDS011;31471;51.040;14.414;2022-12-07T02:37:19;11.75;;;6.53;;
45760;SDS011;31471;51.040;14.414;2022-12-07T02:40:08;13.07;;;6.20;;
45760;SDS011;31471;51.040;14.414;2022-12-07T02:42:44;13.25;;;6.30;;
45760;SDS011;31471;51.040;14.414;2022-12-07T02:45:13;12.73;;;7.22;;
45760;SDS011;31471;51.040;14.414;2022-12-07T02:47:41;16.40;;;7.65;;
45760;SDS011;31471;51.040;14.414;2022-12-07T02:50:10;15.95;;;6.28;;
45760;SDS011;31471;51.040;14.414;2022-12-07T02:55:01;14.57;;;6.75;;
45760;SDS011;31471;51.040;14.414;2022-12-07T03:10:19;14.32;;;7.90;;
45760;SDS011;31471;51.040;14.414;2022-12-07T03:18:16;12.93;;;7.15;;
45760;SDS011;31471;51.040;14.414;2022-12-07T03:20:44;12.30;;;7.20;;
45760;SDS011;31471;51.040;14.414;2022-12-07T03:23:12;13.55;;;6.88;;
45760;SDS011;31471;51.040;14.414;2022-12-07T03:25:40;13.82;;;6.95;;
45760;SDS011;31471;51.040;14.414;2022-12-07T03:28:10;13.38;;;6.40;;
45760;SDS011;31471;51.040;14.414;2022-12-07T03:30:46;14.63;;;6.18;;
45760;SDS011;31471;51.040;14.414;2022-12-07T03:33:20;12.32;;;6.22;;
45760;SDS011;31471;51.040;14.414;2022-12-07T03:36:00;9.82;;;5.78;;
45760;SDS011;31471;51.040;14.414;2022-12-07T03:38:50;10.77;;;5.57;;
45760;SDS011;31471;51.040;14.414;2022-12-07T03:41:26;11.98;;;6.05;;
45760;SDS011;31471;51.040;14.414;2022-12-07T03:43:56;12.32;;;6.07;;
45760;SDS011;31471;51.040;14.414;2022-12-07T03:49:43;9.95;;;5.40;;
45760;SDS011;31471;51.040;14.414;2022-12-07T03:52:30;10.00;;;5.45;;
45760;SDS011;31471;51.040;14.414;2022-12-07T03:55:27;8.40;;;5.10;;
45760;SDS011;31471;51.040;14.414;2022-12-07T03:57:57;9.98;;;5.65;;
45760;SDS011;31471;51.040;14.414;2022-12-07T04:00:26;9.20;;;4.60;;
45760;SDS011;31471;51.040;14.414;2022-12-07T04:02:52;10.32;;;5.32;;
45760;SDS011;31471;51.040;14.414;2022-12-07T04:05:18;11.00;;;4.95;;
45760;SDS011;31471;51.040;14.414;2022-12-07T04:07:44;9.93;;;5.13;;
45760;SDS011;31471;51.040;14.414;2022-12-07T04:10:10;10.32;;;4.82;;
45760;SDS011;31471;51.040;14.414;2022-12-07T04:12:36;11.70;;;5.45;;
45760;SDS011;31471;51.040;14.414;2022-12-07T04:15:02;8.65;;;5.30;;
45760;SDS011;31471;51.040;14.414;2022-12-07T04:17:28;11.73;;;6.10;;
45760;SDS011;31471;51.040;14.414;2022-12-07T04:19:54;7.78;;;4.65;;
45760;SDS011;31471;51.040;14.414;2022-12-07T04:22:19;12.20;;;5.30;;
45760;SDS011;31471;51.040;14.414;2022-12-07T04:24:45;7.05;;;4.50;;
45760;SDS011;31471;51.040;14.414;2022-12-07T04:27:10;10.18;;;5.68;;
45760;SDS011;31471;51.040;14.414;2022-12-07T04:29:36;10.55;;;5.63;;
45760;SDS011;31471;51.040;14.414;2022-12-07T04:32:02;10.27;;;5.50;;
45760;SDS011;31471;51.040;14.414;2022-12-07T04:34:27;10.80;;;6.50;;
45760;SDS011;31471;51.040;14.414;2022-12-07T04:36:53;12.98;;;5.93;;
45760;SDS011;31471;51.040;14.414;2022-12-07T04:39:23;10.88;;;6.18;;
45760;SDS011;31471;51.040;14.414;2022-12-07T04:41:51;14.32;;;6.95;;
45760;SDS011;31471;51.040;14.414;2022-12-07T04:44:17;11.65;;;6.25;;
45760;SDS011;31471;51.040;14.414;2022-12-07T04:49:09;9.18;;;5.30;;
45760;SDS011;31471;51.040;14.414;2022-12-07T04:51:35;10.57;;;5.93;;
45760;SDS011;31471;51.040;14.414;2022-12-07T04:54:00;12.80;;;6.85;;
45760;SDS011;31471;51.040;14.414;2022-12-07T04:56:26;13.77;;;6.85;;
45760;SDS011;31471;51.040;14.414;2022-12-07T04:58:52;11.93;;;6.78;;
45760;SDS011;31471;51.040;14.414;2022-12-07T05:01:19;12.65;;;6.50;;
45760;SDS011;31471;51.040;14.414;2022-12-07T05:03:45;11.05;;;5.78;;
45760;SDS011;31471;51.040;14.414;2022-12-07T05:06:11;11.70;;;6.13;;
45760;SDS011;31471;51.040;14.414;2022-12-07T05:08:37;13.55;;;6.50;;
45760;SDS011;31471;51.040;14.414;2022-12-07T05:11:03;10.20;;;5.95;;
45760;SDS011;31471;51.040;14.414;2022-12-07T05:13:30;9.55;;;5.57;;
45760;SDS011;31471;51.040;14.414;2022-12-07T05:15:57;11.30;;;5.40;;
45760;SDS011;31471;51.040;14.414;2022-12-07T05:18:22;8.88;;;5.53;;
45760;SDS011;31471;51.040;14.414;2022-12-07T05:20:48;11.32;;;6.32;;
45760;SDS011;31471;51.040;14.414;2022-12-07T05:23:14;9.63;;;5.72;;
45760;SDS011;31471;51.040;14.414;2022-12-07T05:25:39;12.13;;;6.22;;
45760;SDS011;31471;51.040;14.414;2022-12-07T05:28:05;14.48;;;7.28;;
45760;SDS011;31471;51.040;14.414;2022-12-07T05:30:31;11.93;;;5.90;;
45760;SDS011;31471;51.040;14.414;2022-12-07T05:32:57;12.23;;;5.78;;
45760;SDS011;31471;51.040;14.414;2022-12-07T05:35:24;12.77;;;6.22;;
45760;SDS011;31471;51.040;14.414;2022-12-07T05:37:49;12.50;;;6.40;;
45760;SDS011;31471;51.040;14.414;2022-12-07T05:40:15;12.05;;;6.07;;
45760;SDS011;31471;51.040;14.414;2022-12-07T05:42:41;12.82;;;6.43;;
45760;SDS011;31471;51.040;14.414;2022-12-07T05:45:07;9.73;;;6.25;;
45760;SDS011;31471;51.040;14.414;2022-12-07T05:47:34;14.68;;;6.60;;
45760;SDS011;31471;51.040;14.414;2022-12-07T05:50:00;13.15;;;6.45;;
45760;SDS011;31471;51.040;14.414;2022-12-07T05:52:25;12.55;;;6.72;;
45760;SDS011;31471;51.040;14.414;2022-12-07T05:54:51;13.70;;;7.57;;
45760;SDS011;31471;51.040;14.414;2022-12-07T05:57:17;13.88;;;5.95;;
45760;SDS011;31471;51.040;14.414;2022-12-07T05:59:43;15.15;;;6.45;;
45760;SDS011;31471;51.040;14.414;2022-12-07T06:02:10;15.02;;;6.70;;
45760;SDS011;31471;51.040;14.414;2022-12-07T06:04:38;15.45;;;7.43;;
45760;SDS011;31471;51.040;14.414;2022-12-07T06:07:06;14.50;;;7.13;;
45760;SDS011;31471;51.040;14.414;2022-12-07T06:11:58;13.98;;;6.93;;
45760;SDS011;31471;51.040;14.414;2022-12-07T06:14:43;16.88;;;8.32;;
45760;SDS011;31471;51.040;14.414;2022-12-07T06:19:34;15.98;;;7.45;;
45760;SDS011;31471;51.040;14.414;2022-12-07T06:22:00;13.57;;;7.10;;
45760;SDS011;31471;51.040;14.414;2022-12-07T06:24:26;16.10;;;8.18;;
45760;SDS011;31471;51.040;14.414;2022-12-07T06:26:51;16.75;;;7.43;;
45760;SDS011;31471;51.040;14.414;2022-12-07T06:29:17;18.45;;;7.82;;
45760;SDS011;31471;51.040;14.414;2022-12-07T06:34:10;13.13;;;6.30;;
45760;SDS011;31471;51.040;14.414;2022-12-07T06:36:37;13.73;;;6.93;;
45760;SDS011;31471;51.040;14.414;2022-12-07T06:39:03;12.10;;;7.18;;
45760;SDS011;31471;51.040;14.414;2022-12-07T06:41:29;20.58;;;7.93;;
45760;SDS011;31471;51.040;14.414;2022-12-07T06:43:55;18.20;;;7.07;;
45760;SDS011;31471;51.040;14.414;2022-12-07T06:46:20;12.43;;;6.38;;
45760;SDS011;31471;51.040;14.414;2022-12-07T06:48:46;13.45;;;7.30;;
45760;SDS011;31471;51.040;14.414;2022-12-07T06:51:12;12.15;;;7.00;;
45760;SDS011;31471;51.040;14.414;2022-12-07T06:53:37;15.10;;;7.35;;
45760;SDS011;31471;51.040;14.414;2022-12-07T06:56:03;11.88;;;6.55;;
45760;SDS011;31471;51.040;14.414;2022-12-07T06:58:29;14.60;;;6.32;;
45760;SDS011;31471;51.040;14.414;2022-12-07T07:03:21;11.95;;;6.15;;
45760;SDS011;31471;51.040;14.414;2022-12-07T07:05:46;15.10;;;6.45;;
45760;SDS011;31471;51.040;14.414;2022-12-07T07:08:12;12.93;;;6.00;;
45760;SDS011;31471;51.040;14.414;2022-12-07T07:10:38;11.93;;;6.50;;
45760;SDS011;31471;51.040;14.414;2022-12-07T07:13:04;13.60;;;6.95;;
45760;SDS011;31471;51.040;14.414;2022-12-07T07:15:30;14.52;;;6.78;;
45760;SDS011;31471;51.040;14.414;2022-12-07T07:17:56;16.50;;;6.68;;
45760;SDS011;31471;51.040;14.414;2022-12-07T07:20:22;14.07;;;6.72;;
45760;SDS011;31471;51.040;14.414;2022-12-07T07:22:47;14.30;;;6.55;;
45760;SDS011;31471;51.040;14.414;2022-12-07T07:27:39;12.73;;;6.35;;
45760;SDS011;31471;51.040;14.414;2022-12-07T07:30:05;12.07;;;7.03;;
45760;SDS011;31471;51.040;14.414;2022-12-07T07:32:31;11.57;;;6.57;;
45760;SDS011;31471;51.040;14.414;2022-12-07T07:34:57;14.80;;;8.18;;
45760;SDS011;31471;51.040;14.414;2022-12-07T07:37:23;12.95;;;5.85;;
45760;SDS011;31471;51.040;14.414;2022-12-07T07:39:48;11.20;;;5.85;;
45760;SDS011;31471;51.040;14.414;2022-12-07T07:42:14;14.18;;;6.10;;
45760;SDS011;31471;51.040;14.414;2022-12-07T07:44:42;14.18;;;6.72;;
45760;SDS011;31471;51.040;14.414;2022-12-07T07:47:07;12.18;;;5.90;;
45760;SDS011;31471;51.040;14.414;2022-12-07T07:49:34;9.43;;;5.35;;
45760;SDS011;31471;51.040;14.414;2022-12-07T07:52:00;9.68;;;5.20;;
45760;SDS011;31471;51.040;14.414;2022-12-07T07:54:25;10.68;;;5.97;;
45760;SDS011;31471;51.040;14.414;2022-12-07T07:56:51;9.80;;;5.38;;
45760;SDS011;31471;51.040;14.414;2022-12-07T07:59:17;10.18;;;5.22;;
45760;SDS011;31471;51.040;14.414;2022-12-07T08:01:43;8.80;;;5.47;;
45760;SDS011;31471;51.040;14.414;2022-12-07T08:04:09;10.05;;;5.00;;
45760;SDS011;31471;51.040;14.414;2022-12-07T08:06:34;8.85;;;4.75;;
45760;SDS011;31471;51.040;14.414;2022-12-07T08:09:00;7.25;;;4.97;;
45760;SDS011;31471;51.040;14.414;2022-12-07T08:11:26;8.95;;;4.60;;
45760;SDS011;31471;51.040;14.414;2022-12-07T08:13:51;8.00;;;4.60;;
45760;SDS011;31471;51.040;14.414;2022-12-07T08:16:17;9.65;;;5.50;;
45760;SDS011;31471;51.040;14.414;2022-12-07T08:18:43;8.55;;;4.43;;
45760;SDS011;31471;51.040;14.414;2022-12-07T08:23:36;8.15;;;4.93;;
45760;SDS011;31471;51.040;14.414;2022-12-07T08:26:02;6.32;;;3.88;;
45760;SDS011;31471;51.040;14.414;2022-12-07T08:28:29;6.13;;;3.55;;
45760;SDS011;31471;51.040;14.414;2022-12-07T08:31:05;8.00;;;4.30;;
45760;SDS011;31471;51.040;14.414;2022-12-07T08:33:33;8.35;;;4.97;;
45760;SDS011;31471;51.040;14.414;2022-12-07T08:36:03;6.15;;;4.10;;
45760;SDS011;31471;51.040;14.414;2022-12-07T08:38:30;4.28;;;3.22;;
45760;SDS011;31471;51.040;14.414;2022-12-07T08:40:57;6.05;;;3.60;;
45760;SDS011;31471;51.040;14.414;2022-12-07T08:43:23;5.70;;;3.80;;
45760;SDS011;31471;51.040;14.414;2022-12-07T08:45:50;6.05;;;4.03;;
45760;SDS011;31471;51.040;14.414;2022-12-07T08:48:38;6.60;;;4.03;;
45760;SDS011;31471;51.040;14.414;2022-12-07T08:51:08;7.55;;;4.25;;
45760;SDS011;31471;51.040;14.414;2022-12-07T08:53:34;8.27;;;4.20;;
45760;SDS011;31471;51.040;14.414;2022-12-07T08:56:01;6.93;;;4.47;;
45760;SDS011;31471;51.040;14.414;2022-12-07T08:58:27;7.25;;;4.60;;
45760;SDS011;31471;51.040;14.414;2022-12-07T09:00:53;8.48;;;4.80;;
45760;SDS011;31471;51.040;14.414;2022-12-07T09:03:18;9.32;;;5.38;;
45760;SDS011;31471;51.040;14.414;2022-12-07T09:05:44;6.85;;;5.57;;
45760;SDS011;31471;51.040;14.414;2022-12-07T09:08:09;9.25;;;5.78;;
45760;SDS011;31471;51.040;14.414;2022-12-07T09:10:35;9.20;;;5.22;;
45760;SDS011;31471;51.040;14.414;2022-12-07T09:13:01;8.35;;;5.30;;
45760;SDS011;31471;51.040;14.414;2022-12-07T09:15:29;12.00;;;6.45;;
45760;SDS011;31471;51.040;14.414;2022-12-07T09:17:56;12.82;;;6.80;;
45760;SDS011;31471;51.040;14.414;2022-12-07T09:20:22;12.30;;;6.80;;
45760;SDS011;31471;51.040;14.414;2022-12-07T09:22:47;12.77;;;7.32;;
45760;SDS011;31471;51.040;14.414;2022-12-07T09:25:13;9.88;;;6.47;;
45760;SDS011;31471;51.040;14.414;2022-12-07T09:27:39;10.68;;;6.40;;
45760;SDS011;31471;51.040;14.414;2022-12-07T09:30:06;10.32;;;6.20;;
45760;SDS011;31471;51.040;14.414;2022-12-07T09:32:32;11.55;;;6.25;;
45760;SDS011;31471;51.040;14.414;2022-12-07T09:34:57;11.73;;;6.32;;
45760;SDS011;31471;51.040;14.414;2022-12-07T09:37:23;13.95;;;6.63;;
45760;SDS011;31471;51.040;14.414;2022-12-07T09:39:49;10.55;;;6.20;;
45760;SDS011;31471;51.040;14.414;2022-12-07T09:42:23;11.10;;;6.05;;
45760;SDS011;31471;51.040;14.414;2022-12-07T09:45:00;12.55;;;6.32;;
45760;SDS011;31471;51.040;14.414;2022-12-07T09:47:27;8.98;;;5.25;;
45760;SDS011;31471;51.040;14.414;2022-12-07T09:49:55;10.05;;;5.72;;
45760;SDS011;31471;51.040;14.414;2022-12-07T09:52:27;8.10;;;5.53;;
45760;SDS011;31471;51.040;14.414;2022-12-07T09:54:53;9.88;;;5.93;;
45760;SDS011;31471;51.040;14.414;2022-12-07T09:57:20;11.52;;;5.38;;
45760;SDS011;31471;51.040;14.414;2022-12-07T09:59:55;8.98;;;5.07;;
45760;SDS011;31471;51.040;14.414;2022-12-07T10:02:33;15.70;;;6.10;;
45760;SDS011;31471;51.040;14.414;2022-12-07T10:05:22;10.57;;;5.28;;
45760;SDS011;31471;51.040;14.414;2022-12-07T10:07:59;10.00;;;6.00;;
45760;SDS011;31471;51.040;14.414;2022-12-07T10:10:28;10.68;;;6.25;;
45760;SDS011;31471;51.040;14.414;2022-12-07T10:13:09;12.15;;;5.95;;
45760;SDS011;31471;51.040;14.414;2022-12-07T10:18:15;8.05;;;5.20;;
45760;SDS011;31471;51.040;14.414;2022-12-07T10:23:34;8.68;;;5.50;;
45760;SDS011;31471;51.040;14.414;2022-12-07T10:31:39;10.07;;;5.55;;
45760;SDS011;31471;51.040;14.414;2022-12-07T10:34:12;9.80;;;4.90;;
45760;SDS011;31471;51.040;14.414;2022-12-07T10:36:52;11.60;;;6.03;;
45760;SDS011;31471;51.040;14.414;2022-12-07T10:39:31;8.75;;;5.00;;
45760;SDS011;31471;51.040;14.414;2022-12-07T10:42:17;8.00;;;5.47;;
45760;SDS011;31471;51.040;14.414;2022-12-07T10:44:44;8.52;;;5.40;;
45760;SDS011;31471;51.040;14.414;2022-12-07T10:50:17;9.45;;;4.95;;
45760;SDS011;31471;51.040;14.414;2022-12-07T10:53:01;7.60;;;4.53;;
45760;SDS011;31471;51.040;14.414;2022-12-07T10:55:53;14.05;;;6.47;;
45760;SDS011;31471;51.040;14.414;2022-12-07T11:01:41;7.25;;;4.15;;
45760;SDS011;31471;51.040;14.414;2022-12-07T11:04:17;7.38;;;5.00;;
45760;SDS011;31471;51.040;14.414;2022-12-07T11:07:07;7.40;;;3.97;;
45760;SDS011;31471;51.040;14.414;2022-12-07T11:09:54;11.07;;;6.57;;
45760;SDS011;31471;51.040;14.414;2022-12-07T11:12:47;8.20;;;5.20;;
45760;SDS011;31471;51.040;14.414;2022-12-07T11:23:18;7.60;;;4.53;;
45760;SDS011;31471;51.040;14.414;2022-12-07T11:34:44;8.90;;;3.78;;
45760;SDS011;31471;51.040;14.414;2022-12-07T11:37:25;6.65;;;3.90;;
45760;SDS011;31471;51.040;14.414;2022-12-07T11:40:20;5.30;;;3.65;;
45760;SDS011;31471;51.040;14.414;2022-12-07T11:42:52;6.10;;;3.80;;
45760;SDS011;31471;51.040;14.414;2022-12-07T11:45:33;6.38;;;3.60;;
45760;SDS011;31471;51.040;14.414;2022-12-07T11:48:15;5.78;;;3.45;;
45760;SDS011;31471;51.040;14.414;2022-12-07T11:50:48;6.95;;;3.47;;
45760;SDS011;31471;51.040;14.414;2022-12-07T11:53:25;8.57;;;3.65;;
45760;SDS011;31471;51.040;14.414;2022-12-07T11:58:45;6.28;;;3.72;;
45760;SDS011;31471;51.040;14.414;2022-12-07T12:03:42;4.88;;;3.55;;
45760;SDS011;31471;51.040;14.414;2022-12-07T12:06:11;5.70;;;4.43;;
45760;SDS011;31471;51.040;14.414;2022-12-07T12:08:39;6.00;;;3.92;;
45760;SDS011;31471;51.040;14.414;2022-12-07T12:11:30;9.73;;;4.75;;
45760;SDS011;31471;51.040;14.414;2022-12-07T12:19:21;7.63;;;5.13;;
45760;SDS011;31471;51.040;14.414;2022-12-07T12:21:59;9.30;;;4.82;;
45760;SDS011;31471;51.040;14.414;2022-12-07T12:24:35;11.98;;;5.18;;
45760;SDS011;31471;51.040;14.414;2022-12-07T12:27:08;11.18;;;6.10;;
45760;SDS011;31471;51.040;14.414;2022-12-07T12:29:43;9.13;;;5.28;;
45760;SDS011;31471;51.040;14.414;2022-12-07T12:32:22;9.10;;;5.82;;
45760;SDS011;31471;51.040;14.414;2022-12-07T12:42:49;10.77;;;5.97;;
45760;SDS011;31471;51.040;14.414;2022-12-07T12:45:25;6.85;;;5.13;;
45760;SDS011;31471;51.040;14.414;2022-12-07T12:52:55;8.57;;;3.72;;
45760;SDS011;31471;51.040;14.414;2022-12-07T12:55:45;6.47;;;3.53;;
45760;SDS011;31471;51.040;14.414;2022-12-07T12:58:28;3.55;;;3.22;;
45760;SDS011;31471;51.040;14.414;2022-12-07T13:03:57;6.60;;;4.30;;
45760;SDS011;31471;51.040;14.414;2022-12-07T13:08:49;5.82;;;3.80;;
45760;SDS011;31471;51.040;14.414;2022-12-07T13:11:38;9.90;;;4.55;;
45760;SDS011;31471;51.040;14.414;2022-12-07T13:24:56;5.50;;;4.30;;
45760;SDS011;31471;51.040;14.414;2022-12-07T13:27:34;7.43;;;5.38;;
45760;SDS011;31471;51.040;14.414;2022-12-07T13:30:07;7.00;;;5.22;;
45760;SDS011;31471;51.040;14.414;2022-12-07T13:32:51;8.02;;;4.70;;
45760;SDS011;31471;51.040;14.414;2022-12-07T13:35:32;11.35;;;5.70;;
45760;SDS011;31471;51.040;14.414;2022-12-07T13:38:01;9.63;;;4.45;;
45760;SDS011;31471;51.040;14.414;2022-12-07T13:40:28;7.18;;;4.13;;
45760;SDS011;31471;51.040;14.414;2022-12-07T13:43:01;7.55;;;4.60;;
45760;SDS011;31471;51.040;14.414;2022-12-07T13:45:30;8.57;;;4.35;;
45760;SDS011;31471;51.040;14.414;2022-12-07T13:48:30;11.70;;;5.13;;
45760;SDS011;31471;51.040;14.414;2022-12-07T13:50:58;8.55;;;5.15;;
45760;SDS011;31471;51.040;14.414;2022-12-07T13:53:25;6.78;;;4.28;;
45760;SDS011;31471;51.040;14.414;2022-12-07T13:55:55;8.32;;;4.78;;
45760;SDS011;31471;51.040;14.414;2022-12-07T13:58:25;7.65;;;5.07;;
45760;SDS011;31471;51.040;14.414;2022-12-07T14:00:52;10.52;;;5.65;;
45760;SDS011;31471;51.040;14.414;2022-12-07T14:05:44;9.45;;;5.70;;
45760;SDS011;31471;51.040;14.414;2022-12-07T14:10:36;8.95;;;4.18;;
45760;SDS011;31471;51.040;14.414;2022-12-07T14:13:44;8.02;;;4.55;;
45760;SDS011;31471;51.040;14.414;2022-12-07T14:16:18;7.47;;;4.68;;
45760;SDS011;31471;51.040;14.414;2022-12-07T14:18:46;6.93;;;4.82;;
45760;SDS011;31471;51.040;14.414;2022-12-07T14:23:38;10.57;;;5.80;;
45760;SDS011;31471;51.040;14.414;2022-12-07T14:26:06;10.45;;;5.55;;
45760;SDS011;31471;51.040;14.414;2022-12-07T14:28:40;15.88;;;6.97;;
45760;SDS011;31471;51.040;14.414;2022-12-07T14:31:11;13.65;;;6.47;;
45760;SDS011;31471;51.040;14.414;2022-12-07T14:33:38;14.07;;;7.43;;
45760;SDS011;31471;51.040;14.414;2022-12-07T14:36:05;11.20;;;6.72;;
45760;SDS011;31471;51.040;14.414;2022-12-07T14:40:56;20.60;;;9.30;;
45760;SDS011;31471;51.040;14.414;2022-12-07T14:43:42;20.60;;;10.77;;
45760;SDS011;31471;51.040;14.414;2022-12-07T14:46:09;7.13;;;3.80;;
45760;SDS011;31471;51.040;14.414;2022-12-07T14:48:35;5.70;;;3.50;;
45760;SDS011;31471;51.040;14.414;2022-12-07T14:51:00;5.05;;;3.08;;
45760;SDS011;31471;51.040;14.414;2022-12-07T14:53:30;3.50;;;2.55;;
45760;SDS011;31471;51.040;14.414;2022-12-07T14:56:01;7.50;;;2.65;;
45760;SDS011;31471;51.040;14.414;2022-12-07T14:58:27;8.90;;;4.80;;
45760;SDS011;31471;51.040;14.414;2022-12-07T15:00:52;6.78;;;3.35;;
45760;SDS011;31471;51.040;14.414;2022-12-07T15:03:18;10.60;;;5.43;;
45760;SDS011;31471;51.040;14.414;2022-12-07T15:05:43;8.93;;;4.40;;
45760;SDS011;31471;51.040;14.414;2022-12-07T15:08:13;15.18;;;6.93;;
45760;SDS011;31471;51.040;14.414;2022-12-07T15:10:38;7.20;;;4.00;;
45760;SDS011;31471;51.040;14.414;2022-12-07T15:15:50;15.73;;;7.32;;
45760;SDS011;31471;51.040;14.414;2022-12-07T15:18:17;11.48;;;5.50;;
45760;SDS011;31471;51.040;14.414;2022-12-07T15:20:43;19.52;;;7.50;;
45760;SDS011;31471;51.040;14.414;2022-12-07T15:25:35;26.67;;;10.82;;
45760;SDS011;31471;51.040;14.414;2022-12-07T15:28:00;21.95;;;10.50;;
45760;SDS011;31471;51.040;14.414;2022-12-07T15:30:26;20.95;;;9.18;;
45760;SDS011;31471;51.040;14.414;2022-12-07T15:32:52;12.27;;;6.55;;
45760;SDS011;31471;51.040;14.414;2022-12-07T15:35:18;10.23;;;5.78;;
45760;SDS011;31471;51.040;14.414;2022-12-07T15:40:09;12.90;;;6.82;;
45760;SDS011;31471;51.040;14.414;2022-12-07T15:42:36;17.77;;;7.43;;
45760;SDS011;31471;51.040;14.414;2022-12-07T15:45:02;21.90;;;9.32;;
45760;SDS011;31471;51.040;14.414;2022-12-07T15:47:29;20.73;;;9.35;;
45760;SDS011;31471;51.040;14.414;2022-12-07T15:49:55;21.33;;;9.65;;
45760;SDS011;31471;51.040;14.414;2022-12-07T15:52:21;13.90;;;7.43;;
45760;SDS011;31471;51.040;14.414;2022-12-07T15:54:46;16.08;;;8.52;;
45760;SDS011;31471;51.040;14.414;2022-12-07T15:57:12;24.48;;;12.93;;
45760;SDS011;31471;51.040;14.414;2022-12-07T15:59:38;12.60;;;6.63;;
45760;SDS011;31471;51.040;14.414;2022-12-07T16:02:04;16.60;;;7.15;;
45760;SDS011;31471;51.040;14.414;2022-12-07T16:04:29;15.95;;;8.73;;
45760;SDS011;31471;51.040;14.414;2022-12-07T16:06:55;8.70;;;4.72;;
45760;SDS011;31471;51.040;14.414;2022-12-07T16:09:21;10.80;;;5.28;;
45760;SDS011;31471;51.040;14.414;2022-12-07T16:11:47;6.82;;;4.13;;
45760;SDS011;31471;51.040;14.414;2022-12-07T16:14:15;7.00;;;4.35;;
45760;SDS011;31471;51.040;14.414;2022-12-07T16:16:40;5.90;;;3.80;;
45760;SDS011;31471;51.040;14.414;2022-12-07T16:19:06;4.63;;;3.28;;
45760;SDS011;31471;51.040;14.414;2022-12-07T16:21:33;4.18;;;2.83;;
45760;SDS011;31471;51.040;14.414;2022-12-07T16:24:00;5.55;;;2.40;;
45760;SDS011;31471;51.040;14.414;2022-12-07T16:26:26;4.03;;;2.63;;
45760;SDS011;31471;51.040;14.414;2022-12-07T16:28:52;3.63;;;2.70;;
45760;SDS011;31471;51.040;14.414;2022-12-07T16:31:19;4.50;;;3.28;;
45760;SDS011;31471;51.040;14.414;2022-12-07T16:33:47;4.05;;;2.85;;
45760;SDS011;31471;51.040;14.414;2022-12-07T16:36:16;7.75;;;3.22;;
45760;SDS011;31471;51.040;14.414;2022-12-07T16:38:43;9.02;;;6.15;;
45760;SDS011;31471;51.040;14.414;2022-12-07T16:43:35;5.18;;;3.67;;
45760;SDS011;31471;51.040;14.414;2022-12-07T16:48:27;10.32;;;5.75;;
45760;SDS011;31471;51.040;14.414;2022-12-07T16:50:53;8.77;;;4.70;;
45760;SDS011;31471;51.040;14.414;2022-12-07T16:53:20;14.70;;;7.53;;
45760;SDS011;31471;51.040;14.414;2022-12-07T16:55:47;13.73;;;7.15;;
45760;SDS011;31471;51.040;14.414;2022-12-07T17:00:40;12.40;;;6.55;;
45760;SDS011;31471;51.040;14.414;2022-12-07T17:03:07;12.05;;;6.90;;
45760;SDS011;31471;51.040;14.414;2022-12-07T17:05:32;10.52;;;5.32;;
45760;SDS011;31471;51.040;14.414;2022-12-07T17:07:58;10.38;;;5.40;;
45760;SDS011;31471;51.040;14.414;2022-12-07T17:10:24;13.55;;;6.88;;
45760;SDS011;31471;51.040;14.414;2022-12-07T17:12:50;10.10;;;5.15;;
45760;SDS011;31471;51.040;14.414;2022-12-07T17:15:16;8.52;;;5.13;;
45760;SDS011;31471;51.040;14.414;2022-12-07T17:17:46;9.38;;;4.85;;